createdAt,value
2018-04-02T00:00:15.137Z,19.15
2018-04-02T00:00:48.986Z,18.65
2018-04-02T00:01:22.872Z,18.98
2018-04-02T00:01:56.774Z,18.30
2018-04-02T00:02:30.639Z,16.50
2018-04-02T00:03:04.493Z,16.10
2018-04-02T00:03:38.353Z,16.37
2018-04-02T00:04:12.266Z,18.25
2018-04-02T00:04:46.173Z,17.52
2018-04-02T00:05:20.070Z,18.37
2018-04-02T00:05:54.083Z,18.23
2018-04-02T00:06:27.946Z,19.73
2018-04-02T00:07:01.830Z,17.30
2018-04-02T00:07:36.152Z,17.23
2018-04-02T00:08:10.005Z,17.37
2018-04-02T00:08:43.862Z,17.50
2018-04-02T00:09:17.708Z,17.42
2018-04-02T00:09:51.595Z,17.62
2018-04-02T00:10:25.495Z,16.55
2018-04-02T00:10:59.373Z,17.60
2018-04-02T00:11:33.275Z,16.25
2018-04-02T00:12:07.163Z,15.93
2018-04-02T00:12:41.024Z,19.00
2018-04-02T00:13:14.887Z,17.05
2018-04-02T00:13:48.759Z,21.50
2018-04-02T00:14:22.633Z,20.90
2018-04-02T00:14:56.516Z,23.25
2018-04-02T00:15:30.701Z,21.27
2018-04-02T00:16:04.594Z,20.40
2018-04-02T00:16:38.445Z,24.67
2018-04-02T00:17:12.308Z,21.90
2018-04-02T00:17:46.165Z,21.12
2018-04-02T00:18:20.138Z,20.90
2018-04-02T00:18:54.013Z,27.95
2018-04-02T00:19:27.872Z,21.33
2018-04-02T00:20:01.747Z,26.30
2018-04-02T00:20:35.606Z,25.90
2018-04-02T00:21:09.459Z,25.95
2018-04-02T00:21:43.317Z,24.37
2018-04-02T00:22:17.183Z,21.45
2018-04-02T00:22:51.218Z,22.50
2018-04-02T00:23:25.061Z,20.65
2018-04-02T00:23:58.931Z,23.75
2018-04-02T00:24:32.784Z,27.20
2018-04-02T00:25:06.698Z,25.40
2018-04-02T00:25:40.557Z,22.95
2018-04-02T00:26:14.411Z,27.13
2018-04-02T00:26:48.269Z,23.17
2018-04-02T00:27:22.141Z,21.05
2018-04-02T00:27:55.993Z,21.73
2018-04-02T00:28:29.849Z,20.12
2018-04-02T00:29:03.706Z,26.50
2018-04-02T00:29:37.557Z,26.35
2018-04-02T00:30:11.413Z,17.95
2018-04-02T00:30:45.531Z,18.12
2018-04-02T00:31:19.390Z,16.52
2018-04-02T00:31:53.288Z,16.70
2018-04-02T00:32:27.235Z,16.75
2018-04-02T00:33:01.441Z,16.48
2018-04-02T00:33:35.290Z,16.35
2018-04-02T00:34:09.153Z,16.65
2018-04-02T00:34:43.010Z,16.10
2018-04-02T00:35:16.873Z,17.48
2018-04-02T00:35:50.742Z,16.87
2018-04-02T00:36:24.618Z,15.15
2018-04-02T00:36:58.499Z,15.23
2018-04-02T00:37:32.376Z,16.80
2018-04-02T00:38:06.238Z,16.27
2018-04-02T00:38:40.180Z,16.08
2018-04-02T00:39:14.046Z,17.17
2018-04-02T00:39:47.900Z,16.12
2018-04-02T00:40:21.761Z,16.58
2018-04-02T00:40:55.620Z,15.95
2018-04-02T00:41:29.534Z,16.95
2018-04-02T00:42:03.405Z,16.20
2018-04-02T00:42:37.302Z,16.45
2018-04-02T00:43:11.171Z,16.52
2018-04-02T00:43:45.030Z,17.30
2018-04-02T00:44:18.887Z,17.58
2018-04-02T00:44:52.828Z,17.65
2018-04-02T00:45:26.682Z,17.42
2018-04-02T00:46:00.542Z,17.23
2018-04-02T00:46:34.406Z,16.08
2018-04-02T00:47:08.290Z,16.20
2018-04-02T00:47:42.166Z,16.80
2018-04-02T00:48:16.043Z,16.60
2018-04-02T00:48:49.905Z,17.12
2018-04-02T00:49:23.773Z,15.80
2018-04-02T00:49:57.630Z,16.62
2018-04-02T00:50:31.508Z,16.02
2018-04-02T00:51:05.374Z,17.60
2018-04-02T00:51:39.269Z,17.35
2018-04-02T00:52:13.156Z,16.12
2018-04-02T00:52:47.047Z,16.87
2018-04-02T00:53:20.909Z,16.85
2018-04-02T00:53:54.776Z,17.05
2018-04-02T00:54:28.632Z,17.62
2018-04-02T00:55:02.492Z,15.82
2018-04-02T00:55:36.377Z,16.27
2018-04-02T00:56:10.240Z,18.10
2018-04-02T00:56:44.122Z,18.58
2018-04-02T00:57:17.985Z,16.90
2018-04-02T00:57:51.878Z,18.27
2018-04-02T00:58:25.730Z,17.80
2018-04-02T00:58:59.585Z,17.85
2018-04-02T00:59:33.439Z,16.77
2018-04-02T01:00:07.391Z,16.55
2018-04-02T01:00:41.255Z,17.33
2018-04-02T01:01:15.109Z,17.42
2018-04-02T01:01:48.963Z,17.62
2018-04-02T01:02:22.807Z,16.73
2018-04-02T01:02:56.670Z,18.27
2018-04-02T01:03:30.541Z,17.23
2018-04-02T01:04:04.400Z,17.67
2018-04-02T01:04:38.341Z,16.70
2018-04-02T01:05:12.215Z,17.10
2018-04-02T01:05:46.080Z,18.20
2018-04-02T01:06:20.027Z,18.83
2018-04-02T01:06:53.883Z,18.98
2018-04-02T01:07:27.757Z,18.30
2018-04-02T01:08:01.635Z,17.50
2018-04-02T01:08:35.495Z,18.20
2018-04-02T01:09:09.346Z,18.98
2018-04-02T01:09:43.213Z,19.40
2018-04-02T01:10:17.084Z,17.00
2018-04-02T01:10:50.963Z,18.08
2018-04-02T01:11:24.816Z,18.90
2018-04-02T01:11:58.677Z,17.77
2018-04-02T01:12:32.672Z,18.30
2018-04-02T01:13:06.581Z,17.73
2018-04-02T01:13:40.470Z,18.15
2018-04-02T01:14:14.334Z,17.50
2018-04-02T01:14:48.190Z,19.00
2018-04-02T01:15:22.057Z,20.15
2018-04-02T01:15:55.944Z,17.92
2018-04-02T01:16:29.809Z,17.62
2018-04-02T01:17:03.720Z,17.92
2018-04-02T01:17:37.729Z,18.70
2018-04-02T01:18:11.600Z,19.12
2018-04-02T01:18:45.462Z,19.25
2018-04-02T01:19:19.323Z,19.92
2018-04-02T01:19:53.186Z,19.23
2018-04-02T01:20:27.061Z,18.25
2018-04-02T01:21:00.924Z,18.67
2018-04-02T01:21:34.788Z,20.37
2018-04-02T01:22:08.691Z,20.23
2018-04-02T01:22:42.540Z,18.98
2018-04-02T01:23:16.411Z,18.55
2018-04-02T01:23:50.373Z,20.00
2018-04-02T01:24:24.228Z,19.70
2018-04-02T01:24:58.093Z,18.67
2018-04-02T01:25:31.970Z,18.90
2018-04-02T01:26:05.837Z,20.42
2018-04-02T01:26:39.716Z,21.65
2018-04-02T01:27:13.591Z,20.75
2018-04-02T01:27:47.450Z,19.42
2018-04-02T01:28:21.331Z,20.23
2018-04-02T01:28:55.212Z,20.95
2018-04-02T01:29:29.076Z,19.62
2018-04-02T01:30:02.928Z,20.23
2018-04-02T01:30:36.798Z,22.05
2018-04-02T01:31:10.660Z,21.27
2018-04-02T01:31:44.703Z,19.10
2018-04-02T01:32:18.580Z,21.37
2018-04-02T01:32:52.449Z,20.70
2018-04-02T01:33:26.333Z,20.83
2018-04-02T01:34:00.189Z,21.62
2018-04-02T01:34:34.272Z,20.33
2018-04-02T01:35:08.137Z,21.08
2018-04-02T01:35:42.026Z,21.23
2018-04-02T01:36:15.893Z,19.75
2018-04-02T01:36:49.752Z,20.73
2018-04-02T01:37:23.613Z,22.58
2018-04-02T01:37:57.471Z,20.58
2018-04-02T01:38:31.340Z,20.98
2018-04-02T01:39:05.211Z,20.15
2018-04-02T01:39:39.077Z,21.23
2018-04-02T01:40:12.942Z,20.95
2018-04-02T01:40:46.790Z,19.65
2018-04-02T01:41:20.719Z,21.12
2018-04-02T01:41:54.578Z,21.77
2018-04-02T01:42:28.457Z,21.08
2018-04-02T01:43:02.323Z,20.85
2018-04-02T01:43:36.215Z,21.87
2018-04-02T01:44:10.077Z,21.45
2018-04-02T01:44:43.938Z,22.98
2018-04-02T01:45:17.816Z,22.60
2018-04-02T01:45:51.717Z,23.58
2018-04-02T01:46:25.581Z,21.10
2018-04-02T01:46:59.445Z,23.17
2018-04-02T01:47:33.363Z,22.13
2018-04-02T01:48:07.240Z,21.83
2018-04-02T01:48:41.115Z,22.52
2018-04-02T01:49:14.986Z,22.98
2018-04-02T01:49:48.852Z,22.52
2018-04-02T01:50:22.721Z,22.35
2018-04-02T01:50:56.586Z,23.27
2018-04-02T01:51:30.607Z,22.30
2018-04-02T01:52:04.478Z,22.98
2018-04-02T01:52:38.349Z,23.20
2018-04-02T01:53:12.218Z,22.27
2018-04-02T01:53:46.116Z,23.30
2018-04-02T01:54:19.977Z,22.73
2018-04-02T01:54:53.837Z,21.80
2018-04-02T01:55:27.703Z,23.70
2018-04-02T01:56:01.627Z,22.40
2018-04-02T01:56:35.451Z,23.65
2018-04-02T01:57:09.312Z,23.80
2018-04-02T01:57:43.178Z,22.50
2018-04-02T01:58:17.050Z,21.40
2018-04-02T01:58:50.937Z,23.58
2018-04-02T01:59:24.809Z,22.37
2018-04-02T01:59:58.958Z,22.42
2018-04-02T02:00:32.810Z,23.15
2018-04-02T02:01:06.669Z,24.05
2018-04-02T02:01:40.516Z,23.77
2018-04-02T02:02:14.377Z,23.20
2018-04-02T02:02:48.238Z,22.80
2018-04-02T02:03:22.121Z,22.27
2018-04-02T02:03:55.995Z,24.02
2018-04-02T02:04:29.878Z,23.60
2018-04-02T02:05:03.738Z,21.75
2018-04-02T02:05:37.617Z,25.37
2018-04-02T02:06:11.598Z,22.40
2018-04-02T02:06:45.459Z,22.23
2018-04-02T02:07:19.309Z,22.85
2018-04-02T02:07:53.168Z,23.77
2018-04-02T02:08:27.015Z,22.58
2018-04-02T02:09:00.902Z,24.42
2018-04-02T02:09:34.765Z,21.77
2018-04-02T02:10:08.622Z,22.60
2018-04-02T02:10:42.559Z,25.02
2018-04-02T02:11:16.442Z,21.98
2018-04-02T02:11:50.303Z,23.05
2018-04-02T02:12:24.163Z,23.58
2018-04-02T02:12:58.018Z,23.20
2018-04-02T02:13:31.872Z,23.45
2018-04-02T02:14:05.928Z,23.87
2018-04-02T02:14:39.788Z,23.35
2018-04-02T02:15:13.661Z,23.00
2018-04-02T02:15:47.515Z,23.45
2018-04-02T02:16:21.365Z,22.45
2018-04-02T02:16:55.503Z,23.27
2018-04-02T02:17:29.365Z,22.42
2018-04-02T02:18:03.234Z,21.83
2018-04-02T02:18:37.091Z,23.70
2018-04-02T02:19:10.957Z,23.38
2018-04-02T02:19:44.823Z,23.62
2018-04-02T02:20:18.686Z,22.25
2018-04-02T02:20:52.586Z,24.95
2018-04-02T02:21:26.445Z,23.17
2018-04-02T02:22:00.309Z,23.48
2018-04-02T02:22:34.175Z,23.38
2018-04-02T02:23:08.031Z,22.77
2018-04-02T02:23:41.914Z,21.40
2018-04-02T02:24:15.793Z,22.40
2018-04-02T02:24:49.665Z,22.05
2018-04-02T02:25:23.523Z,23.15
2018-04-02T02:25:57.405Z,24.63
2018-04-02T02:26:31.268Z,25.37
2018-04-02T02:27:05.139Z,23.10
2018-04-02T02:27:39.008Z,24.73
2018-04-02T02:28:12.865Z,23.10
2018-04-02T02:28:46.726Z,23.40
2018-04-02T02:29:20.593Z,23.35
2018-04-02T02:29:54.444Z,22.98
2018-04-02T02:30:28.304Z,23.48
2018-04-02T02:31:02.480Z,22.30
2018-04-02T02:31:36.375Z,23.60
2018-04-02T02:32:10.256Z,23.25
2018-04-02T02:32:44.125Z,23.90
2018-04-02T02:33:17.986Z,24.30
2018-04-02T02:33:51.917Z,25.37
2018-04-02T02:34:25.793Z,25.10
2018-04-02T02:34:59.669Z,24.02
2018-04-02T02:35:33.535Z,24.63
2018-04-02T02:36:07.399Z,22.17
2018-04-02T02:36:41.256Z,23.92
2018-04-02T02:37:15.110Z,24.33
2018-04-02T02:37:48.989Z,22.55
2018-04-02T02:38:22.930Z,25.42
2018-04-02T02:38:56.802Z,23.70
2018-04-02T02:39:30.731Z,24.70
2018-04-02T02:40:05.449Z,22.83
2018-04-02T02:40:39.331Z,24.60
2018-04-02T02:41:13.609Z,23.65
2018-04-02T02:41:47.477Z,24.65
2018-04-02T02:42:21.970Z,24.80
2018-04-02T02:42:56.731Z,23.65
2018-04-02T02:43:30.596Z,25.45
2018-04-02T02:44:04.454Z,24.23
2018-04-02T02:44:38.333Z,24.10
2018-04-02T02:45:12.310Z,23.80
2018-04-02T02:45:46.201Z,24.67
2018-04-02T02:46:20.083Z,25.67
2018-04-02T02:46:53.984Z,23.55
2018-04-02T02:47:28.106Z,24.52
2018-04-02T02:48:02.052Z,23.45
2018-04-02T02:48:36.475Z,24.65
2018-04-02T02:49:10.351Z,24.12
2018-04-02T02:49:44.406Z,24.58
2018-04-02T02:50:18.290Z,24.20
2018-04-02T02:50:52.150Z,25.25
2018-04-02T02:51:26.001Z,23.42
2018-04-02T02:52:00.397Z,24.73
2018-04-02T02:52:34.254Z,23.77
2018-04-02T02:53:08.127Z,24.50
2018-04-02T02:53:41.984Z,23.80
2018-04-02T02:54:15.857Z,25.70
2018-04-02T02:54:49.733Z,26.23
2018-04-02T02:55:23.594Z,25.50
2018-04-02T02:55:57.662Z,24.70
2018-04-02T02:56:31.563Z,23.65
2018-04-02T02:57:05.432Z,24.42
2018-04-02T02:57:39.292Z,23.62
2018-04-02T02:58:13.158Z,25.90
2018-04-02T02:58:47.030Z,25.67
2018-04-02T02:59:20.894Z,24.08
2018-04-02T02:59:54.779Z,24.63
2018-04-02T03:00:28.649Z,23.87
2018-04-02T03:01:02.512Z,25.98
2018-04-02T03:01:36.366Z,24.80
2018-04-02T03:02:10.228Z,25.80
2018-04-02T03:02:44.104Z,25.20
2018-04-02T03:03:17.965Z,26.37
2018-04-02T03:03:51.838Z,24.73
2018-04-02T03:04:25.722Z,24.15
2018-04-02T03:04:59.599Z,24.25
2018-04-02T03:05:33.560Z,25.33
2018-04-02T03:06:07.413Z,25.42
2018-04-02T03:06:41.290Z,25.92
2018-04-02T03:07:15.143Z,27.15
2018-04-02T03:07:49.015Z,24.67
2018-04-02T03:08:22.870Z,26.27
2018-04-02T03:08:56.732Z,25.10
2018-04-02T03:09:30.678Z,26.67
2018-04-02T03:10:04.567Z,24.33
2018-04-02T03:10:38.432Z,25.02
2018-04-02T03:11:12.305Z,25.60
2018-04-02T03:11:46.165Z,23.95
2018-04-02T03:12:20.033Z,25.73
2018-04-02T03:12:53.900Z,25.27
2018-04-02T03:13:27.754Z,26.23
2018-04-02T03:14:01.610Z,24.50
2018-04-02T03:14:35.472Z,24.92
2018-04-02T03:15:09.352Z,25.27
2018-04-02T03:15:43.228Z,26.30
2018-04-02T03:16:17.279Z,25.65
2018-04-02T03:16:51.135Z,26.75
2018-04-02T03:17:24.997Z,25.88
2018-04-02T03:17:58.861Z,24.87
2018-04-02T03:18:32.738Z,26.27
2018-04-02T03:19:06.594Z,26.65
2018-04-02T03:19:40.651Z,25.35
2018-04-02T03:20:14.760Z,25.83
2018-04-02T03:20:48.626Z,25.80
2018-04-02T03:21:22.643Z,25.85
2018-04-02T03:21:56.533Z,26.67
2018-04-02T03:22:30.397Z,27.05
2018-04-02T03:23:04.241Z,24.40
2018-04-02T03:23:38.096Z,24.58
2018-04-02T03:24:11.969Z,24.98
2018-04-02T03:24:45.825Z,26.42
2018-04-02T03:25:19.715Z,25.80
2018-04-02T03:25:53.576Z,25.20
2018-04-02T03:26:27.451Z,26.05
2018-04-02T03:27:01.306Z,25.00
2018-04-02T03:27:35.167Z,25.77
2018-04-02T03:28:09.027Z,27.05
2018-04-02T03:28:42.888Z,25.83
2018-04-02T03:29:16.748Z,24.20
2018-04-02T03:29:50.616Z,25.55
2018-04-02T03:30:24.526Z,25.95
2018-04-02T03:30:58.401Z,23.90
2018-04-02T03:31:32.274Z,26.15
2018-04-02T03:32:06.146Z,24.63
2018-04-02T03:32:40.010Z,25.15
2018-04-02T03:33:13.874Z,25.27
2018-04-02T03:33:47.929Z,23.87
2018-04-02T03:34:21.800Z,24.55
2018-04-02T03:34:55.673Z,24.50
2018-04-02T03:35:29.540Z,25.08
2018-04-02T03:36:03.389Z,25.80
2018-04-02T03:36:37.252Z,24.25
2018-04-02T03:37:11.130Z,26.35
2018-04-02T03:37:45.002Z,26.80
2018-04-02T03:38:18.898Z,24.67
2018-04-02T03:38:52.749Z,26.17
2018-04-02T03:39:26.614Z,25.40
2018-04-02T03:40:00.470Z,26.65
2018-04-02T03:40:34.347Z,25.70
2018-04-02T03:41:08.206Z,25.50
2018-04-02T03:41:42.057Z,26.15
2018-04-02T03:42:15.957Z,27.65
2018-04-02T03:42:49.800Z,24.40
2018-04-02T03:43:23.666Z,26.35
2018-04-02T03:43:57.540Z,26.55
2018-04-02T03:44:31.417Z,25.90
2018-04-02T03:45:05.286Z,24.42
2018-04-02T03:45:39.149Z,25.60
2018-04-02T03:46:13.010Z,26.05
2018-04-02T03:46:46.857Z,25.20
2018-04-02T03:47:20.714Z,26.20
2018-04-02T03:47:54.594Z,26.23
2018-04-02T03:48:28.458Z,24.65
2018-04-02T03:49:02.314Z,25.45
2018-04-02T03:49:36.178Z,27.00
2018-04-02T03:50:10.043Z,26.15
2018-04-02T03:50:43.920Z,26.30
2018-04-02T03:51:17.779Z,25.37
2018-04-02T03:51:51.650Z,26.48
2018-04-02T03:52:25.527Z,25.00
2018-04-02T03:52:59.385Z,26.55
2018-04-02T03:53:33.250Z,24.92
2018-04-02T03:54:07.114Z,26.12
2018-04-02T03:54:40.991Z,25.98
2018-04-02T03:55:14.853Z,25.90
2018-04-02T03:55:48.736Z,27.02
2018-04-02T03:56:22.603Z,25.98
2018-04-02T03:56:56.544Z,26.40
2018-04-02T03:57:30.416Z,24.92
2018-04-02T03:58:04.276Z,27.33
2018-04-02T03:58:38.196Z,25.23
2018-04-02T03:59:12.064Z,25.55
2018-04-02T03:59:45.929Z,26.58
2018-04-02T04:00:19.802Z,27.23
2018-04-02T04:00:53.689Z,27.30
2018-04-02T04:01:27.545Z,25.65
2018-04-02T04:02:01.406Z,26.40
2018-04-02T04:02:35.250Z,26.20
2018-04-02T04:03:09.159Z,25.23
2018-04-02T04:03:43.009Z,27.05
2018-04-02T04:04:16.873Z,25.17
2018-04-02T04:04:50.736Z,26.35
2018-04-02T04:05:24.597Z,26.00
2018-04-02T04:05:58.510Z,25.27
2018-04-02T04:06:32.411Z,26.37
2018-04-02T04:07:06.314Z,25.42
2018-04-02T04:07:40.191Z,25.92
2018-04-02T04:08:14.059Z,25.00
2018-04-02T04:08:47.916Z,27.55
2018-04-02T04:09:21.780Z,25.95
2018-04-02T04:09:55.640Z,26.85
2018-04-02T04:10:29.498Z,26.27
2018-04-02T04:11:03.371Z,25.00
2018-04-02T04:11:37.230Z,25.80
2018-04-02T04:12:11.090Z,25.67
2018-04-02T04:12:44.970Z,25.90
2018-04-02T04:13:18.832Z,25.65
2018-04-02T04:13:52.697Z,25.92
2018-04-02T04:14:26.551Z,25.15
2018-04-02T04:15:00.472Z,25.33
2018-04-02T04:15:34.438Z,26.85
2018-04-02T04:16:08.350Z,26.87
2018-04-02T04:16:42.208Z,26.87
2018-04-02T04:17:16.173Z,26.75
2018-04-02T04:17:50.024Z,24.67
2018-04-02T04:18:23.895Z,25.67
2018-04-02T04:18:57.752Z,27.13
2018-04-02T04:19:31.655Z,24.70
2018-04-02T04:20:05.533Z,26.23
2018-04-02T04:20:39.401Z,25.10
2018-04-02T04:21:13.271Z,24.48
2018-04-02T04:22:35.626Z,26.75
2018-04-02T04:23:09.480Z,24.25
2018-04-02T04:23:43.351Z,24.27
2018-04-02T04:24:17.235Z,25.15
2018-04-02T04:24:51.102Z,24.25
2018-04-02T04:25:24.995Z,26.10
2018-04-02T04:25:58.891Z,25.70
2018-04-02T04:26:32.775Z,24.20
2018-04-02T04:27:06.637Z,25.73
2018-04-02T04:27:40.518Z,24.30
2018-04-02T04:28:14.390Z,26.48
2018-04-02T04:28:48.261Z,25.75
2018-04-02T04:29:22.121Z,26.40
2018-04-02T04:29:55.991Z,25.15
2018-04-02T04:30:29.865Z,26.05
2018-04-02T04:31:03.716Z,25.83
2018-04-02T04:31:37.580Z,24.48
2018-04-02T04:32:11.444Z,23.85
2018-04-02T04:32:45.327Z,25.35
2018-04-02T04:33:19.222Z,26.80
2018-04-02T04:33:53.083Z,25.17
2018-04-02T04:34:26.952Z,23.70
2018-04-02T04:35:00.912Z,24.60
2018-04-02T04:35:34.775Z,25.27
2018-04-02T04:36:08.629Z,25.40
2018-04-02T04:36:42.522Z,25.45
2018-04-02T04:37:16.377Z,25.55
2018-04-02T04:37:50.236Z,23.77
2018-04-02T04:38:24.107Z,24.30
2018-04-02T04:38:57.982Z,25.67
2018-04-02T04:39:31.966Z,23.77
2018-04-02T04:40:05.840Z,26.17
2018-04-02T04:40:39.709Z,25.80
2018-04-02T04:41:13.582Z,25.10
2018-04-02T04:41:47.507Z,25.17
2018-04-02T04:42:21.443Z,24.85
2018-04-02T04:42:55.313Z,24.80
2018-04-02T04:43:29.185Z,26.08
2018-04-02T04:44:03.059Z,25.08
2018-04-02T04:44:36.926Z,23.87
2018-04-02T04:45:10.782Z,24.50
2018-04-02T04:45:44.664Z,24.85
2018-04-02T04:46:18.554Z,22.77
2018-04-02T04:46:52.465Z,23.08
2018-04-02T04:47:26.326Z,23.35
2018-04-02T04:48:00.194Z,23.05
2018-04-02T04:48:34.057Z,24.17
2018-04-02T04:49:07.913Z,24.58
2018-04-02T04:49:41.800Z,25.40
2018-04-02T04:50:15.662Z,23.23
2018-04-02T04:50:49.524Z,24.42
2018-04-02T04:51:23.385Z,23.17
2018-04-02T04:51:57.280Z,24.35
2018-04-02T04:52:31.169Z,24.48
2018-04-02T04:53:05.031Z,24.60
2018-04-02T04:53:38.897Z,24.58
2018-04-02T04:54:12.747Z,23.70
2018-04-02T04:54:46.609Z,24.02
2018-04-02T04:55:20.472Z,24.20
2018-04-02T04:55:54.332Z,24.02
2018-04-02T04:56:28.202Z,24.50
2018-04-02T04:57:02.123Z,24.33
2018-04-02T04:57:35.982Z,25.30
2018-04-02T04:58:10.107Z,25.20
2018-04-02T04:58:43.963Z,23.25
2018-04-02T04:59:17.826Z,25.17
2018-04-02T04:59:51.733Z,22.95
2018-04-02T05:00:25.612Z,23.38
2018-04-02T05:00:59.683Z,23.62
2018-04-02T05:01:33.539Z,24.58
2018-04-02T05:02:07.418Z,23.62
2018-04-02T05:02:41.374Z,25.15
2018-04-02T05:03:15.513Z,25.08
2018-04-02T05:03:49.376Z,23.10
2018-04-02T05:04:23.370Z,23.70
2018-04-02T05:04:57.233Z,25.23
2018-04-02T05:05:31.097Z,24.98
2018-04-02T05:06:04.947Z,26.12
2018-04-02T05:06:38.813Z,25.50
2018-04-02T05:07:12.700Z,23.33
2018-04-02T05:07:46.553Z,22.92
2018-04-02T05:08:20.422Z,23.42
2018-04-02T05:08:54.319Z,23.12
2018-04-02T05:09:28.173Z,23.75
2018-04-02T05:10:02.037Z,22.42
2018-04-02T05:10:35.911Z,21.35
2018-04-02T05:11:09.776Z,22.55
2018-04-02T05:11:43.643Z,22.90
2018-04-02T05:12:17.542Z,22.90
2018-04-02T05:12:51.409Z,24.20
2018-04-02T05:13:25.270Z,21.70
2018-04-02T05:13:59.121Z,22.62
2018-04-02T05:14:32.984Z,23.15
2018-04-02T05:15:07.094Z,23.42
2018-04-02T05:15:40.959Z,23.20
2018-04-02T05:16:14.827Z,24.00
2018-04-02T05:16:48.701Z,23.45
2018-04-02T05:17:22.581Z,23.30
2018-04-02T05:17:56.441Z,23.70
2018-04-02T05:18:30.305Z,22.77
2018-04-02T05:19:04.159Z,22.60
2018-04-02T05:19:38.033Z,23.58
2018-04-02T05:20:11.886Z,23.20
2018-04-02T05:20:45.754Z,22.85
2018-04-02T05:21:19.614Z,23.70
2018-04-02T05:21:53.508Z,23.17
2018-04-02T05:22:27.511Z,22.75
2018-04-02T05:23:01.389Z,24.52
2018-04-02T05:23:35.264Z,24.42
2018-04-02T05:24:09.189Z,21.42
2018-04-02T05:24:43.044Z,23.48
2018-04-02T05:25:16.910Z,24.42
2018-04-02T05:25:50.781Z,24.83
2018-04-02T05:26:24.659Z,24.45
2018-04-02T05:26:58.523Z,24.30
2018-04-02T05:27:32.394Z,23.60
2018-04-02T05:28:06.274Z,23.50
2018-04-02T05:28:40.149Z,22.62
2018-04-02T05:29:14.001Z,22.30
2018-04-02T05:29:47.868Z,22.77
2018-04-02T05:30:21.827Z,23.67
2018-04-02T05:30:55.740Z,21.85
2018-04-02T05:31:29.569Z,21.67
2018-04-02T05:32:03.433Z,21.85
2018-04-02T05:32:37.385Z,22.90
2018-04-02T05:33:11.410Z,21.45
2018-04-02T05:33:45.277Z,21.25
2018-04-02T05:34:19.171Z,21.83
2018-04-02T05:34:53.043Z,21.73
2018-04-02T05:35:26.900Z,22.00
2018-04-02T05:36:00.766Z,22.40
2018-04-02T05:36:34.786Z,19.95
2018-04-02T05:37:08.657Z,21.33
2018-04-02T05:37:42.522Z,21.45
2018-04-02T05:38:16.371Z,20.73
2018-04-02T05:38:50.264Z,21.52
2018-04-02T05:39:24.130Z,20.50
2018-04-02T05:39:57.990Z,22.15
2018-04-02T05:40:31.857Z,21.58
2018-04-02T05:41:05.737Z,19.52
2018-04-02T05:41:39.604Z,20.83
2018-04-02T05:42:13.466Z,20.85
2018-04-02T05:42:47.344Z,20.33
2018-04-02T05:43:21.195Z,21.62
2018-04-02T05:43:55.286Z,20.58
2018-04-02T05:44:29.138Z,22.37
2018-04-02T05:45:03.021Z,20.30
2018-04-02T05:45:37.003Z,22.33
2018-04-02T05:46:10.863Z,21.35
2018-04-02T05:46:44.898Z,21.20
2018-04-02T05:47:18.788Z,21.65
2018-04-02T05:47:52.676Z,21.02
2018-04-02T05:48:26.547Z,20.48
2018-04-02T05:49:00.431Z,21.92
2018-04-02T05:49:34.289Z,20.85
2018-04-02T05:50:08.168Z,20.33
2018-04-02T05:50:42.028Z,20.52
2018-04-02T05:51:15.889Z,20.25
2018-04-02T05:51:49.759Z,21.15
2018-04-02T05:52:23.626Z,20.00
2018-04-02T05:52:57.498Z,19.83
2018-04-02T05:53:31.373Z,21.62
2018-04-02T05:54:05.242Z,19.77
2018-04-02T05:54:39.101Z,19.87
2018-04-02T05:55:12.971Z,20.02
2018-04-02T05:55:46.845Z,19.20
2018-04-02T05:56:20.908Z,21.10
2018-04-02T05:56:54.760Z,20.40
2018-04-02T05:57:28.610Z,19.12
2018-04-02T05:58:02.595Z,19.20
2018-04-02T05:58:36.465Z,19.33
2018-04-02T05:59:10.342Z,19.02
2018-04-02T05:59:44.248Z,19.75
2018-04-02T06:00:18.084Z,19.48
2018-04-02T06:00:51.957Z,20.02
2018-04-02T06:01:25.826Z,21.05
2018-04-02T06:01:59.689Z,19.17
2018-04-02T06:02:33.556Z,19.25
2018-04-02T06:03:07.468Z,18.27
2018-04-02T06:03:41.388Z,18.95
2018-04-02T06:04:15.248Z,20.73
2018-04-02T06:04:49.108Z,19.95
2018-04-02T06:05:22.977Z,19.37
2018-04-02T06:05:56.930Z,18.02
2018-04-02T06:06:30.789Z,19.12
2018-04-02T06:07:04.645Z,17.70
2018-04-02T06:07:38.549Z,17.85
2018-04-02T06:08:12.424Z,18.40
2018-04-02T06:08:46.488Z,19.58
2018-04-02T06:09:20.363Z,19.50
2018-04-02T06:09:54.233Z,18.30
2018-04-02T06:10:28.123Z,20.00
2018-04-02T06:11:01.985Z,18.98
2018-04-02T06:11:35.848Z,18.15
2018-04-02T06:12:09.742Z,17.95
2018-04-02T06:12:43.606Z,18.50
2018-04-02T06:13:17.503Z,20.15
2018-04-02T06:13:51.579Z,17.17
2018-04-02T06:14:25.458Z,18.95
2018-04-02T06:14:59.309Z,18.10
2018-04-02T06:15:33.206Z,17.33
2018-04-02T06:16:07.137Z,17.70
2018-04-02T06:16:40.971Z,17.85
2018-04-02T06:17:14.815Z,17.62
2018-04-02T06:17:48.772Z,19.15
2018-04-02T06:18:22.646Z,18.23
2018-04-02T06:18:56.496Z,17.27
2018-04-02T06:19:30.365Z,18.58
2018-04-02T06:20:04.515Z,18.70
2018-04-02T06:20:38.388Z,19.02
2018-04-02T06:21:12.249Z,19.33
2018-04-02T06:21:46.203Z,18.08
2018-04-02T06:22:20.113Z,17.15
2018-04-02T06:22:53.949Z,16.83
2018-04-02T06:23:27.814Z,19.23
2018-04-02T06:24:01.673Z,17.60
2018-04-02T06:24:35.544Z,18.50
2018-04-02T06:25:09.409Z,18.05
2018-04-02T06:25:43.260Z,18.65
2018-04-02T06:26:17.154Z,18.15
2018-04-02T06:26:51.010Z,17.75
2018-04-02T06:27:24.878Z,17.87
2018-04-02T06:27:58.740Z,17.77
2018-04-02T06:28:32.619Z,16.73
2018-04-02T06:29:06.536Z,17.85
2018-04-02T06:29:40.376Z,17.10
2018-04-02T06:30:14.293Z,17.58
2018-04-02T06:30:48.170Z,17.50
2018-04-02T06:31:22.030Z,17.58
2018-04-02T06:31:55.886Z,17.80
2018-04-02T06:32:29.746Z,19.45
2018-04-02T06:33:03.600Z,17.60
2018-04-02T06:33:37.505Z,18.90
2018-04-02T06:34:11.382Z,16.67
2018-04-02T06:34:46.189Z,19.27
2018-04-02T06:35:20.165Z,17.75
2018-04-02T06:35:54.038Z,17.12
2018-04-02T06:36:27.896Z,17.15
2018-04-02T06:37:01.792Z,17.48
2018-04-02T06:37:35.778Z,18.73
2018-04-02T06:38:09.659Z,16.37
2018-04-02T06:38:43.534Z,16.70
2018-04-02T06:39:17.398Z,17.77
2018-04-02T06:39:51.271Z,17.17
2018-04-02T06:40:25.152Z,17.17
2018-04-02T06:40:59.012Z,16.00
2018-04-02T06:41:32.933Z,18.20
2018-04-02T06:42:06.801Z,17.90
2018-04-02T06:42:40.683Z,18.12
2018-04-02T06:43:14.558Z,15.70
2018-04-02T06:43:48.442Z,16.65
2018-04-02T06:44:22.301Z,17.08
2018-04-02T06:44:56.171Z,16.20
2018-04-02T06:45:30.034Z,16.20
2018-04-02T06:46:03.903Z,16.85
2018-04-02T06:46:38.282Z,16.60
2018-04-02T06:47:12.151Z,16.25
2018-04-02T06:47:46.056Z,16.15
2018-04-02T06:48:19.928Z,16.50
2018-04-02T06:48:53.814Z,17.27
2018-04-02T06:49:27.671Z,17.55
2018-04-02T06:50:01.553Z,15.45
2018-04-02T06:50:35.421Z,16.37
2018-04-02T06:51:09.290Z,15.15
2018-04-02T06:51:43.150Z,16.20
2018-04-02T06:52:17.066Z,15.90
2018-04-02T06:52:50.929Z,15.73
2018-04-02T06:53:24.806Z,15.10
2018-04-02T06:53:58.688Z,15.75
2018-04-02T06:54:32.549Z,16.08
2018-04-02T06:55:06.408Z,15.07
2018-04-02T06:55:40.257Z,15.57
2018-04-02T06:56:14.131Z,15.82
2018-04-02T06:56:47.993Z,15.10
2018-04-02T06:57:21.883Z,16.40
2018-04-02T06:57:55.754Z,15.05
2018-04-02T06:58:29.618Z,14.18
2018-04-02T06:59:03.506Z,16.25
2018-04-02T06:59:37.362Z,14.68
2018-04-02T07:00:11.247Z,17.52
2018-04-02T07:00:45.280Z,14.38
2018-04-02T07:01:19.149Z,16.05
2018-04-02T07:01:54.001Z,15.85
2018-04-02T07:02:27.879Z,15.07
2018-04-02T07:03:01.814Z,15.85
2018-04-02T07:03:35.751Z,15.60
2018-04-02T07:04:09.709Z,15.60
2018-04-02T07:04:43.743Z,16.62
2018-04-02T07:05:17.634Z,15.60
2018-04-02T07:05:51.543Z,16.90
2018-04-02T07:06:25.464Z,14.93
2018-04-02T07:06:59.420Z,14.65
2018-04-02T07:07:33.271Z,14.20
2018-04-02T07:08:07.153Z,15.70
2018-04-02T07:08:41.068Z,13.70
2018-04-02T07:09:14.974Z,14.55
2018-04-02T07:09:48.870Z,15.43
2018-04-02T07:10:22.743Z,13.98
2018-04-02T07:10:56.656Z,16.20
2018-04-02T07:11:30.492Z,16.10
2018-04-02T07:12:04.364Z,16.25
2018-04-02T07:12:38.413Z,14.80
2018-04-02T07:13:12.278Z,15.25
2018-04-02T07:13:46.282Z,14.27
2018-04-02T07:14:20.203Z,13.82
2018-04-02T07:14:54.072Z,15.52
2018-04-02T07:15:27.990Z,16.05
2018-04-02T07:16:01.866Z,15.23
2018-04-02T07:16:35.844Z,14.45
2018-04-02T07:17:09.882Z,14.45